Mariner Of The Seas — C6FV9 — position and weather

sailwx.info

Track history (hours):
 
Tides and Currents Weather Stations Pressure Air Temp Water Temp Dewpoint Dewpoint Depression Visibility Wind Speed Wind Dir Waves Ship Positions

Mariner Of The Seas

Operator: Royal Caribbean Cruises Ltd

Last reported at 2017-Oct-20 03:29 UTC. Time now 2017-Oct-20 03:37 UTC.
Position N 01°16' E 103°52'.

Type: Passenger vessel. MMSI: 311493000.

Date/timePositionNaut miles runAvg speedWind from/ knotsBaromVisibWave heightAir tempDewpointWater temp
2017-Oct-20 03:29N 01°16' E 103°52'0 0.0
2017-Oct-20 02:59N 01°16' E 103°52'0 0.0
2017-Oct-20 02:29N 01°16' E 103°52'0 0.0
2017-Oct-20 01:59N 01°16' E 103°52'0 0.0
2017-Oct-20 01:29N 01°16' E 103°52'0 0.0
2017-Oct-20 00:59N 01°16' E 103°52'0 0.0
2017-Oct-20 00:29N 01°16' E 103°52'0 0.0
2017-Oct-19 23:59N 01°16' E 103°52'3 5.8
2017-Oct-19 23:30N 01°14' E 103°53'510.2
2017-Oct-19 23:01N 01°11' E 103°49'917.2
2017-Oct-19 22:30N 01°05' E 103°43'815.4
2017-Oct-19 21:59N 01°05' E 103°35'918.2
2017-Oct-19 21:30N 01°10' E 103°27'816.2
2017-Oct-19 20:59N 01°15' E 103°21'715.0
2017-Oct-19 20:30N 01°20' E 103°15'32515.5
2017-Oct-18 23:35N 05°20' E 099°36'38 1.2
2017-Oct-17 15:14N 05°38' E 100°09'514.8
2017-Oct-17 14:55N 05°35' E 100°13'613.9
2017-Oct-17 14:30N 05°32' E 100°18'510.7
2017-Oct-17 14:00N 05°27' E 100°21'2 2.8
2017-Oct-17 13:22N 05°25' E 100°21'0 0.1
2017-Oct-17 12:58N 05°25' E 100°21'0 0.0
2017-Oct-17 12:28N 05°25' E 100°21'0 0.0
2017-Oct-17 11:58N 05°25' E 100°21'0 0.0
2017-Oct-17 11:28N 05°25' E 100°21'0 0.0
2017-Oct-17 10:58N 05°25' E 100°21'0 0.0
2017-Oct-17 10:16N 05°25' E 100°21'0 0.2
2017-Oct-17 09:58N 05°25' E 100°21'0 0.1
2017-Oct-17 09:22N 05°25' E 100°21'0 0.0
2017-Oct-17 08:58N 05°25' E 100°21'0 0.0
2017-Oct-17 08:28N 05°25' E 100°21'0 0.0
2017-Oct-17 07:58N 05°25' E 100°21'0 0.0
2017-Oct-17 07:28N 05°25' E 100°21'0 0.0
2017-Oct-17 06:52N 05°25' E 100°21'0 0.5
2017-Oct-17 06:30N 05°25' E 100°21'19 6.7
2017-Oct-17 03:43N 05°15' E 100°05'32934.4
2017-Oct-16 18:09N 01°16' E 103°52'0 0.0
2017-Oct-16 17:53N 01°16' E 103°52'0 0.0
2017-Oct-16 16:36N 01°16' E 103°52'0 0.0
2017-Oct-16 14:24N 01°16' E 103°52'4 1.3
2017-Oct-16 11:16N 01°12' E 103°52'0 1.8
2017-Oct-16 11:00N 01°12' E 103°51'2948.7
2017-Oct-16 10:25N 01°15' E 103°23'820.5
2017-Oct-16 10:01N 01°12' E 103°31'1020.2
2017-Oct-16 09:31N 01°10' E 103°41'917.4
2017-Oct-16 09:00N 01°11' E 103°49'4 8.5
2017-Oct-16 08:30N 01°15' E 103°52'1 2.3
2017-Oct-16 07:57N 01°16' E 103°52'0 0.0
2017-Oct-16 07:30N 01°16' E 103°52'0 0.0
2017-Oct-16 06:57N 01°16' E 103°52'0 0.0
2017-Oct-16 06:27N 01°16' E 103°52'0 0.0
2017-Oct-16 06:00N 01°16' E 103°52'0 0.0
2017-Oct-16 05:27N 01°16' E 103°52'0 0.0
2017-Oct-16 05:00N 01°16' E 103°52'0 0.0
2017-Oct-16 04:27N 01°16' E 103°52'0 0.0
2017-Oct-16 04:00N 01°16' E 103°52'0 0.0
2017-Oct-16 03:27N 01°16' E 103°52'0 0.0
2017-Oct-16 03:00N 01°16' E 103°52'0 0.0
2017-Oct-16 02:30N 01°16' E 103°52'0 0.0
2017-Oct-16 01:57N 01°16' E 103°52'0 0.0
2017-Oct-16 01:27N 01°16' E 103°52'0 0.0
2017-Oct-16 00:57N 01°16' E 103°52'0 0.0
2017-Oct-16 00:27N 01°16' E 103°52'0 0.0
2017-Oct-15 23:57N 01°16' E 103°52'2 4.0
2017-Oct-15 23:30N 01°14' E 103°52'3 6.1
2017-Oct-15 23:00N 01°11' E 103°51'510.6
2017-Oct-15 22:30N 01°09' E 103°47'510.1
2017-Oct-15 22:00N 01°05' E 103°43'510.4
2017-Oct-15 21:31N 01°04' E 103°38'611.8
2017-Oct-15 21:01N 01°07' E 103°33'611.7
2017-Oct-15 20:31N 01°10' E 103°28'612.3
2017-Oct-15 19:59N 01°13' E 103°22'613.1
2017-Oct-15 19:30N 01°17' E 103°18'713.9
2017-Oct-15 18:58N 01°22' E 103°12'23 0.5
2017-Oct-13 22:22N 01°12' E 103°33'1 3.0
2017-Oct-13 21:59N 01°12' E 103°34'2 2.6
2017-Oct-13 21:23N 01°11' E 103°35'1 2.7
2017-Oct-13 20:59N 01°11' E 103°37'1 2.5
2017-Oct-13 20:29N 01°11' E 103°38'2 2.7
2017-Oct-13 19:44N 01°11' E 103°40'1 2.7
2017-Oct-13 19:30N 01°10' E 103°40'13 5.0
2017-Oct-13 17:01N 01°16' E 103°52'0 0.0
2017-Oct-13 16:45N 01°16' E 103°52'37 7.7
2017-Oct-13 11:57N 01°22' E 103°15'815.6
2017-Oct-13 11:25N 01°17' E 103°22'615.4
2017-Oct-13 11:00N 01°13' E 103°27'714.8
2017-Oct-13 10:30N 01°12' E 103°34'714.2
2017-Oct-13 10:01N 01°10' E 103°41'612.3
2017-Oct-13 09:30N 01°10' E 103°47'611.6
2017-Oct-13 09:00N 01°14' E 103°52'2 4.9
2017-Oct-13 08:30N 01°16' E 103°52'0 0.0
2017-Oct-13 08:00N 01°16' E 103°52'0 0.0
2017-Oct-13 07:30N 01°16' E 103°52'0 0.0
2017-Oct-13 06:54N 01°16' E 103°52'0 0.0
2017-Oct-13 06:30N 01°16' E 103°52'0 0.0
2017-Oct-13 05:54N 01°16' E 103°52'0 0.0
2017-Oct-13 05:30N 01°16' E 103°52'0 0.0
2017-Oct-13 05:00N 01°16' E 103°52'0 0.0
2017-Oct-13 04:27N 01°16' E 103°52'0 0.0
2017-Oct-13 04:00N 01°16' E 103°52'0 0.0
2017-Oct-13 03:30N 01°16' E 103°52'0 0.0
2017-Oct-13 03:00N 01°16' E 103°52'0 0.0
2017-Oct-13 02:30N 01°16' E 103°52'0 0.0
2017-Oct-13 02:00N 01°16' E 103°52'0 0.0
2017-Oct-13 01:30N 01°16' E 103°52'0 0.0
2017-Oct-13 01:00N 01°16' E 103°52'0 0.0
2017-Oct-13 00:27N 01°16' E 103°52'0 0.0
2017-Oct-13 00:00N 01°16' E 103°52'3 6.2
2017-Oct-12 23:30N 01°14' E 103°53'4 8.7
2017-Oct-12 23:01N 01°11' E 103°50'713.3
2017-Oct-12 22:30N 01°07' E 103°45'713.6
2017-Oct-12 22:00N 01°03' E 103°39'713.4
2017-Oct-12 21:31N 01°06' E 103°33'815.0
2017-Oct-12 20:59N 01°10' E 103°26'714.9
2017-Oct-12 20:30N 01°14' E 103°20'815.3
2017-Oct-12 20:00N 01°19' E 103°14'  
2017-Oct-10 14:55N 05°35' E 100°13'1213.3
2017-Oct-10 14:00N 05°26' E 100°21'1 1.0
2017-Oct-10 13:14N 05°25' E 100°21'0 0.1
2017-Oct-10 12:44N 05°25' E 100°21'0 0.0
2017-Oct-10 12:26N 05°25' E 100°21'0 0.0
2017-Oct-10 11:02N 05°25' E 100°21'0 0.0
2017-Oct-10 10:56N 05°25' E 100°21'0 0.0
2017-Oct-10 10:26N 05°25' E 100°21'0 0.0
2017-Oct-10 09:56N 05°25' E 100°21'0 0.0
2017-Oct-10 09:26N 05°25' E 100°21'0 0.0
2017-Oct-10 08:38N 05°25' E 100°21'0 0.3
2017-Oct-10 08:26N 05°25' E 100°21'0 0.1
2017-Oct-10 07:56N 05°25' E 100°21'0 0.0
2017-Oct-10 07:14N 05°25' E 100°21'0 0.0
2017-Oct-10 06:50N 05°25' E 100°21'0 0.2
2017-Oct-10 06:30N 05°25' E 100°21'4 7.6
2017-Oct-10 06:00N 05°29' E 100°20'  
Track history (hours):
 
Tides and Currents Weather Stations Pressure Air Temp Water Temp Dewpoint Dewpoint Depression Visibility Wind Speed Wind Dir Waves Ship Positions

Mariner Of The Seas

Operator: Royal Caribbean Cruises Ltd

Last reported at 2017-Oct-20 03:29 UTC. Time now 2017-Oct-20 03:37 UTC.
Position N 01°16' E 103°52'.

Type: Passenger vessel. MMSI: 311493000.

Date/timePositionNaut miles runAvg speedWind from/ knotsBaromVisibWave heightAir tempDewpointWater temp
2017-Oct-20 03:29N 01°16' E 103°52'0 0.0
2017-Oct-20 02:59N 01°16' E 103°52'0 0.0
2017-Oct-20 02:29N 01°16' E 103°52'0 0.0
2017-Oct-20 01:59N 01°16' E 103°52'0 0.0
2017-Oct-20 01:29N 01°16' E 103°52'0 0.0
2017-Oct-20 00:59N 01°16' E 103°52'0 0.0
2017-Oct-20 00:29N 01°16' E 103°52'0 0.0
2017-Oct-19 23:59N 01°16' E 103°52'3 5.8
2017-Oct-19 23:30N 01°14' E 103°53'510.2
2017-Oct-19 23:01N 01°11' E 103°49'917.2
2017-Oct-19 22:30N 01°05' E 103°43'815.4
2017-Oct-19 21:59N 01°05' E 103°35'918.2
2017-Oct-19 21:30N 01°10' E 103°27'816.2
2017-Oct-19 20:59N 01°15' E 103°21'715.0
2017-Oct-19 20:30N 01°20' E 103°15'32515.5
2017-Oct-18 23:35N 05°20' E 099°36'38 1.2
2017-Oct-17 15:14N 05°38' E 100°09'514.8
2017-Oct-17 14:55N 05°35' E 100°13'613.9
2017-Oct-17 14:30N 05°32' E 100°18'510.7
2017-Oct-17 14:00N 05°27' E 100°21'2 2.8
2017-Oct-17 13:22N 05°25' E 100°21'0 0.1
2017-Oct-17 12:58N 05°25' E 100°21'0 0.0
2017-Oct-17 12:28N 05°25' E 100°21'0 0.0
2017-Oct-17 11:58N 05°25' E 100°21'0 0.0
2017-Oct-17 11:28N 05°25' E 100°21'0 0.0
2017-Oct-17 10:58N 05°25' E 100°21'0 0.0
2017-Oct-17 10:16N 05°25' E 100°21'0 0.2
2017-Oct-17 09:58N 05°25' E 100°21'0 0.1
2017-Oct-17 09:22N 05°25' E 100°21'0 0.0
2017-Oct-17 08:58N 05°25' E 100°21'0 0.0
2017-Oct-17 08:28N 05°25' E 100°21'0 0.0
2017-Oct-17 07:58N 05°25' E 100°21'0 0.0
2017-Oct-17 07:28N 05°25' E 100°21'0 0.0
2017-Oct-17 06:52N 05°25' E 100°21'0 0.5
2017-Oct-17 06:30N 05°25' E 100°21'19 6.7
2017-Oct-17 03:43N 05°15' E 100°05'32934.4
2017-Oct-16 18:09N 01°16' E 103°52'0 0.0
2017-Oct-16 17:53N 01°16' E 103°52'0 0.0
2017-Oct-16 16:36N 01°16' E 103°52'0 0.0
2017-Oct-16 14:24N 01°16' E 103°52'4 1.3
2017-Oct-16 11:16N 01°12' E 103°52'0 1.8
2017-Oct-16 11:00N 01°12' E 103°51'2948.7
2017-Oct-16 10:25N 01°15' E 103°23'820.5
2017-Oct-16 10:01N 01°12' E 103°31'1020.2
2017-Oct-16 09:31N 01°10' E 103°41'917.4
2017-Oct-16 09:00N 01°11' E 103°49'4 8.5
2017-Oct-16 08:30N 01°15' E 103°52'1 2.3
2017-Oct-16 07:57N 01°16' E 103°52'0 0.0
2017-Oct-16 07:30N 01°16' E 103°52'0 0.0
2017-Oct-16 06:57N 01°16' E 103°52'0 0.0
2017-Oct-16 06:27N 01°16' E 103°52'0 0.0
2017-Oct-16 06:00N 01°16' E 103°52'0 0.0
2017-Oct-16 05:27N 01°16' E 103°52'0 0.0
2017-Oct-16 05:00N 01°16' E 103°52'0 0.0
2017-Oct-16 04:27N 01°16' E 103°52'0 0.0
2017-Oct-16 04:00N 01°16' E 103°52'0 0.0
2017-Oct-16 03:27N 01°16' E 103°52'0 0.0
2017-Oct-16 03:00N 01°16' E 103°52'0 0.0
2017-Oct-16 02:30N 01°16' E 103°52'0 0.0
2017-Oct-16 01:57N 01°16' E 103°52'0 0.0
2017-Oct-16 01:27N 01°16' E 103°52'0 0.0
2017-Oct-16 00:57N 01°16' E 103°52'0 0.0
2017-Oct-16 00:27N 01°16' E 103°52'0 0.0
2017-Oct-15 23:57N 01°16' E 103°52'2 4.0
2017-Oct-15 23:30N 01°14' E 103°52'3 6.1
2017-Oct-15 23:00N 01°11' E 103°51'510.6
2017-Oct-15 22:30N 01°09' E 103°47'510.1
2017-Oct-15 22:00N 01°05' E 103°43'510.4
2017-Oct-15 21:31N 01°04' E 103°38'611.8
2017-Oct-15 21:01N 01°07' E 103°33'611.7
2017-Oct-15 20:31N 01°10' E 103°28'612.3
2017-Oct-15 19:59N 01°13' E 103°22'613.1
2017-Oct-15 19:30N 01°17' E 103°18'713.9
2017-Oct-15 18:58N 01°22' E 103°12'23 0.5
2017-Oct-13 22:22N 01°12' E 103°33'1 3.0
2017-Oct-13 21:59N 01°12' E 103°34'2 2.6
2017-Oct-13 21:23N 01°11' E 103°35'1 2.7
2017-Oct-13 20:59N 01°11' E 103°37'1 2.5
2017-Oct-13 20:29N 01°11' E 103°38'2 2.7
2017-Oct-13 19:44N 01°11' E 103°40'1 2.7
2017-Oct-13 19:30N 01°10' E 103°40'13 5.0
2017-Oct-13 17:01N 01°16' E 103°52'0 0.0
2017-Oct-13 16:45N 01°16' E 103°52'37 7.7
2017-Oct-13 11:57N 01°22' E 103°15'815.6
2017-Oct-13 11:25N 01°17' E 103°22'615.4
2017-Oct-13 11:00N 01°13' E 103°27'714.8
2017-Oct-13 10:30N 01°12' E 103°34'714.2
2017-Oct-13 10:01N 01°10' E 103°41'612.3
2017-Oct-13 09:30N 01°10' E 103°47'611.6
2017-Oct-13 09:00N 01°14' E 103°52'2 4.9
2017-Oct-13 08:30N 01°16' E 103°52'0 0.0
2017-Oct-13 08:00N 01°16' E 103°52'0 0.0
2017-Oct-13 07:30N 01°16' E 103°52'0 0.0
2017-Oct-13 06:54N 01°16' E 103°52'0 0.0
2017-Oct-13 06:30N 01°16' E 103°52'0 0.0
2017-Oct-13 05:54N 01°16' E 103°52'0 0.0
2017-Oct-13 05:30N 01°16' E 103°52'0 0.0
2017-Oct-13 05:00N 01°16' E 103°52'0 0.0
2017-Oct-13 04:27N 01°16' E 103°52'0 0.0
2017-Oct-13 04:00N 01°16' E 103°52'0 0.0
2017-Oct-13 03:30N 01°16' E 103°52'0 0.0
2017-Oct-13 03:00N 01°16' E 103°52'0 0.0
2017-Oct-13 02:30N 01°16' E 103°52'0 0.0
2017-Oct-13 02:00N 01°16' E 103°52'0 0.0
2017-Oct-13 01:30N 01°16' E 103°52'0 0.0
2017-Oct-13 01:00N 01°16' E 103°52'0 0.0
2017-Oct-13 00:27N 01°16' E 103°52'0 0.0
2017-Oct-13 00:00N 01°16' E 103°52'3 6.2
2017-Oct-12 23:30N 01°14' E 103°53'4 8.7
2017-Oct-12 23:01N 01°11' E 103°50'713.3
2017-Oct-12 22:30N 01°07' E 103°45'713.6
2017-Oct-12 22:00N 01°03' E 103°39'713.4
2017-Oct-12 21:31N 01°06' E 103°33'815.0
2017-Oct-12 20:59N 01°10' E 103°26'714.9
2017-Oct-12 20:30N 01°14' E 103°20'815.3
2017-Oct-12 20:00N 01°19' E 103°14'  
2017-Oct-10 14:55N 05°35' E 100°13'1213.3
2017-Oct-10 14:00N 05°26' E 100°21'1 1.0
2017-Oct-10 13:14N 05°25' E 100°21'0 0.1
2017-Oct-10 12:44N 05°25' E 100°21'0 0.0
2017-Oct-10 12:26N 05°25' E 100°21'0 0.0
2017-Oct-10 11:02N 05°25' E 100°21'0 0.0
2017-Oct-10 10:56N 05°25' E 100°21'0 0.0
2017-Oct-10 10:26N 05°25' E 100°21'0 0.0
2017-Oct-10 09:56N 05°25' E 100°21'0 0.0
2017-Oct-10 09:26N 05°25' E 100°21'0 0.0
2017-Oct-10 08:38N 05°25' E 100°21'0 0.3
2017-Oct-10 08:26N 05°25' E 100°21'0 0.1
2017-Oct-10 07:56N 05°25' E 100°21'0 0.0
2017-Oct-10 07:14N 05°25' E 100°21'0 0.0
2017-Oct-10 06:50N 05°25' E 100°21'0 0.2
2017-Oct-10 06:30N 05°25' E 100°21'4 7.6
2017-Oct-10 06:00N 05°29' E 100°20'  

Dump ship's entire track history